Aérodrome :
LOGIN :

S'inscrire | Disclaimer

   EN    FR    IT 

 










Légende :    VFR   VFR Marginal   IFR   IFR Intensif   IFR Très Intensif
Visi : 
Plafond : 
>= 8 km
>= 3000ft
5 à 8 km
1000 à 3000 ft
1500m à 5 km
500 à 1000 ft
800 à 1500m
200 à 500 ft
< 800m
< 200 ft
Symboles :   Orages  Brouillard  Fortes neiges  Fortes précipitations  Vent > 20 kt
SIGMETs :   Divers  Orages  Givrage  Turbulence  Onde Orograph.  Cendres Volcan.







- Altitude de l'aérodrome : 202 ft
- Code IATA : LGW
- Voir les cartes d'approche


EGKK - London Gatwick

DERNIER METAR :
  • 200050Z 32007KT 2000 DZ OVC004 09/09 Q1016

METARs EXPIRÉS :
  • 200020Z 32008KT 3000 DZ OVC007 09/09 Q1016
  • 192350Z 33008KT 7000 OVC009 10/09 Q1016
  • 192320Z 33009KT 7000 OVC009 10/09 Q1016
  • 192250Z 33008KT 7000 OVC009 10/09 Q1016
  • 192220Z 33008KT 6000 OVC010 10/09 Q1016

TAF AMD TAF EGKK
Valide du 20 à 00h jusqu'au 21 à 06h UTC


200044Z 2000/2106 34007KT 7000 BKN008
TEMPO 2000/2011 3000 DZ BR BKN003
BECMG 2012/2015 9999 BKN018
TEMPO 2015/2101 BKN012
PROB30
TEMPO 2017/2024 6000 -DZ BKN009
PROB40
TEMPO 2101/2106 BKN013
Pas de NOTAMs connus pour ce terrain.



MET'MAP, la Météo Aéronautique d'un coup d'oeil ! - Copyright ORBIFLY Décembre 2007 - Disclaimer

ORBIFLY MET'MAP TEAM :

Programmation & Développement : Alexandra Zaïnal
Conception & Développement : Baudouin d'Aumeries
Co-Programmation & Développement : Marc-Olivier Méhu
Soutien technique & logistique : Manuel Goepfert

Contact : metmap@orbifly.com




SOURCES & CREDITS :

   NOAA